Time;durP1;ratioP1;P1;durP2;ratioP2;P2;SDS_P1;SDS_P2;PMS_P1;PMS_P2;Temp;Humidity;BMP_temperature;BMP_pressure;BME280_temperature;BME280_humidity;BME280_pressure;Samples;Min_cycle;Max_cycle;Signal;HPM_P1;HPM_P2
2022/07/20 00:01:04;;;;;;;9.00;6.17;;;24.90;87.40;;;;;;5032764;28;20514;-80
2022/07/20 00:03:30;;;;;;;6.20;5.10;;;24.90;90.40;;;;;;5032486;28;20215;-80
2022/07/20 00:05:56;;;;;;;8.30;5.50;;;24.80;92.40;;;;;;5032310;28;20200;-81
2022/07/20 00:11:19;;;;;;;7.97;5.60;;;24.80;91.60;;;;;;5034651;28;20418;-80
2022/07/20 00:13:51;;;;;;;6.57;5.27;;;24.80;92.60;;;;;;5036481;28;20874;-81
2022/07/20 00:16:18;;;;;;;7.57;5.17;;;24.70;93.40;;;;;;5018703;28;20463;-81
2022/07/20 00:18:43;;;;;;;6.33;5.00;;;24.80;95.10;;;;;;5036379;28;20989;-81
2022/07/20 00:21:09;;;;;;;5.93;4.80;;;24.70;95.00;;;;;;5037394;28;20427;-80
2022/07/20 00:23:34;;;;;;;7.13;5.50;;;24.70;95.90;;;;;;5036491;28;20179;-81
2022/07/20 00:26:00;;;;;;;6.20;4.80;;;24.60;94.70;;;;;;5036223;28;20204;-81
2022/07/20 00:28:25;;;;;;;8.20;5.77;;;24.60;97.00;;;;;;5018237;28;20271;-81
2022/07/20 00:30:51;;;;;;;7.73;5.43;;;24.60;96.30;;;;;;5036169;28;20199;-81
2022/07/20 00:33:16;;;;;;;8.70;5.40;;;24.50;96.40;;;;;;5035824;28;20676;-80
2022/07/20 00:35:42;;;;;;;7.93;5.43;;;24.50;96.80;;;;;;5035292;28;20208;-81
2022/07/20 00:38:08;;;;;;;10.37;6.60;;;24.50;99.00;;;;;;5035919;28;20244;-81
2022/07/20 00:40:33;;;;;;;8.17;5.80;;;24.40;98.90;;;;;;5035881;28;20592;-81
2022/07/20 00:42:59;;;;;;;8.33;5.63;;;24.40;99.90;;;;;;5017356;28;20176;-81
2022/07/20 00:45:24;;;;;;;12.03;5.80;;;24.40;98.40;;;;;;5035719;28;20296;-80
2022/07/20 00:47:51;;;;;;;7.80;5.87;;;24.30;99.30;;;;;;5035731;28;20181;-81
2022/07/20 00:50:17;;;;;;;8.67;5.77;;;24.30;99.40;;;;;;5036358;28;20173;-81
2022/07/20 00:52:43;;;;;;;8.70;5.93;;;24.20;99.90;;;;;;5034877;28;20792;-80
2022/07/20 00:55:09;;;;;;;7.37;5.40;;;24.20;99.90;;;;;;5035593;28;20439;-80
2022/07/20 00:57:35;;;;;;;7.27;6.50;;;24.20;99.90;;;;;;5034284;28;20582;-81
2022/07/20 01:00:02;;;;;;;10.13;6.00;;;24.10;99.90;;;;;;5035491;28;20508;-80
2022/07/20 01:02:28;;;;;;;8.83;5.80;;;24.10;99.90;;;;;;5035251;28;20544;-80
2022/07/20 01:04:53;;;;;;;7.90;5.50;;;24.00;99.90;;;;;;5034783;28;20432;-81
2022/07/20 01:07:19;;;;;;;6.73;5.43;;;24.00;99.90;;;;;;5035123;28;20202;-80
2022/07/20 01:09:45;;;;;;;6.80;5.23;;;23.90;99.90;;;;;;5034681;28;20183;-81
2022/07/20 01:12:11;;;;;;;7.10;5.40;;;23.90;99.90;;;;;;5034749;28;20191;-81
2022/07/20 01:14:37;;;;;;;8.10;5.70;;;23.90;99.90;;;;;;5034671;28;20419;-80
2022/07/20 01:17:03;;;;;;;8.87;5.50;;;23.90;99.90;;;;;;5034175;28;20501;-81
2022/07/20 01:19:29;;;;;;;7.60;4.73;;;23.80;99.90;;;;;;5034102;28;20455;-81
2022/07/20 01:21:54;;;;;;;6.90;6.20;;;23.80;99.90;;;;;;5033950;28;20646;-80
2022/07/20 01:24:20;;;;;;;6.40;4.57;;;23.80;99.90;;;;;;5034170;28;20192;-80
2022/07/20 01:26:46;;;;;;;8.37;5.37;;;23.80;99.90;;;;;;5033694;28;20626;-80
2022/07/20 01:29:13;;;;;;;7.60;5.10;;;23.80;99.90;;;;;;5034235;28;20236;-80
2022/07/20 01:31:39;;;;;;;6.53;5.30;;;23.80;99.90;;;;;;5034344;28;20469;-81
2022/07/20 01:34:05;;;;;;;6.70;5.20;;;23.80;99.90;;;;;;5033958;28;20454;-80
2022/07/20 01:36:31;;;;;;;5.67;5.17;;;23.80;99.90;;;;;;5014841;28;21249;-80
2022/07/20 01:38:56;;;;;;;6.90;5.70;;;23.80;99.90;;;;;;5033913;28;20651;-80
2022/07/20 01:41:22;;;;;;;6.80;4.93;;;23.80;99.90;;;;;;5015769;28;20176;-80
2022/07/20 01:43:48;;;;;;;6.37;4.70;;;23.80;99.90;;;;;;5034119;28;20175;-81
2022/07/20 01:46:14;;;;;;;10.73;5.87;;;23.70;99.90;;;;;;5036927;28;20226;-80
2022/07/20 01:48:40;;;;;;;9.37;4.70;;;23.80;99.90;;;;;;5036851;28;20267;-80
2022/07/20 01:51:06;;;;;;;5.87;4.80;;;23.70;99.90;;;;;;5037233;28;20542;-81
2022/07/20 01:53:31;;;;;;;5.30;4.80;;;23.70;99.90;;;;;;5018969;28;20427;-80
2022/07/20 01:55:57;;;;;;;6.23;5.00;;;23.70;99.90;;;;;;5036828;28;20235;-80
2022/07/20 01:58:23;;;;;;;6.03;4.90;;;23.70;99.90;;;;;;5036440;28;20718;-80
2022/07/20 02:00:49;;;;;;;6.83;5.00;;;23.70;99.90;;;;;;5037074;28;20169;-80
2022/07/20 02:03:15;;;;;;;6.33;4.90;;;23.60;99.90;;;;;;5036528;28;20598;-80
2022/07/20 02:05:41;;;;;;;5.37;4.87;;;23.60;99.90;;;;;;5036281;28;20522;-81
2022/07/20 02:08:07;;;;;;;6.30;4.97;;;23.60;99.90;;;;;;5036704;28;20173;-80
2022/07/20 02:10:33;;;;;;;5.97;4.70;;;23.60;99.90;;;;;;5018654;28;20188;-80
2022/07/20 02:12:58;;;;;;;6.03;5.00;;;23.60;99.90;;;;;;5036450;28;20179;-81
2022/07/20 02:18:12;;;;;;;7.17;5.33;;;23.60;99.90;;;;;;4985704;28;20234;-81
2022/07/20 02:20:38;;;;;;;9.60;4.77;;;23.60;99.90;;;;;;5036293;28;20414;-81
2022/07/20 02:23:06;;;;;;;4.77;4.30;;;23.60;99.90;;;;;;5035845;28;20420;-81
2022/07/20 02:25:31;;;;;;;6.63;4.90;;;23.60;99.90;;;;;;5035394;28;20438;-80
2022/07/20 02:27:57;;;;;;;9.30;4.90;;;23.70;99.90;;;;;;5016617;28;20407;-80
2022/07/20 02:30:23;;;;;;;9.80;5.20;;;23.80;99.90;;;;;;5034559;28;20172;-80
2022/07/20 02:32:49;;;;;;;9.67;5.10;;;23.80;99.90;;;;;;5034928;28;20262;-80
2022/07/20 02:35:15;;;;;;;5.63;4.87;;;23.80;99.90;;;;;;5034613;28;20200;-80
2022/07/20 02:37:40;;;;;;;6.70;5.10;;;23.90;99.90;;;;;;5034507;28;20857;-80
2022/07/20 02:40:07;;;;;;;6.43;5.43;;;23.90;99.90;;;;;;5034543;28;20501;-80
2022/07/20 02:42:32;;;;;;;8.63;5.07;;;23.90;99.90;;;;;;5034698;28;20246;-80
2022/07/20 02:44:58;;;;;;;6.33;4.53;;;23.90;99.90;;;;;;5016491;28;20439;-80
2022/07/20 02:47:24;;;;;;;7.67;5.50;;;23.90;99.90;;;;;;5034005;28;20539;-81
2022/07/20 02:49:49;;;;;;;5.90;5.07;;;23.90;99.90;;;;;;5034483;28;20238;-81
2022/07/20 02:52:15;;;;;;;8.53;5.13;;;23.90;99.90;;;;;;5034446;28;20263;-80
2022/07/20 02:54:40;;;;;;;7.43;4.40;;;23.80;99.90;;;;;;5034157;28;20281;-80
2022/07/20 02:57:06;;;;;;;5.60;4.80;;;23.80;99.90;;;;;;5033234;28;20179;-81
2022/07/20 02:59:31;;;;;;;7.60;4.97;;;23.80;99.90;;;;;;5034158;28;20200;-81
2022/07/20 03:01:57;;;;;;;6.13;4.97;;;23.80;99.90;;;;;;5034035;28;20199;-80
2022/07/20 03:04:22;;;;;;;6.37;5.00;;;23.70;99.90;;;;;;5034277;28;20169;-80
2022/07/20 03:06:48;;;;;;;10.37;5.47;;;23.70;99.90;;;;;;5033453;28;20228;-80
2022/07/20 03:09:13;;;;;;;6.50;4.73;;;23.60;99.90;;;;;;5033804;28;20230;-80
2022/07/20 03:11:39;;;;;;;5.23;4.70;;;23.60;99.90;;;;;;5034136;28;20268;-80
2022/07/20 03:14:05;;;;;;;6.97;4.90;;;23.50;99.90;;;;;;5033590;28;20234;-80
2022/07/20 03:16:30;;;;;;;6.57;5.07;;;23.50;99.90;;;;;;5033554;28;20200;-81
2022/07/20 03:18:56;;;;;;;5.87;4.83;;;23.50;99.90;;;;;;5033484;28;20291;-81
2022/07/20 03:21:21;;;;;;;10.23;5.30;;;23.50;99.90;;;;;;5034415;28;20180;-80
2022/07/20 03:23:47;;;;;;;9.20;5.77;;;23.50;99.90;;;;;;5034131;28;20176;-80
2022/07/20 03:26:13;;;;;;;7.63;4.83;;;23.30;99.60;;;;;;5033716;28;20239;-80
2022/07/20 03:28:38;;;;;;;5.07;4.27;;;23.30;98.50;;;;;;5015584;28;20187;-80
2022/07/20 03:31:04;;;;;;;6.03;4.90;;;23.40;97.50;;;;;;5015741;28;20191;-80
2022/07/20 03:33:29;;;;;;;7.67;5.30;;;23.60;94.40;;;;;;5015897;28;20402;-80
2022/07/20 03:35:55;;;;;;;5.40;4.90;;;23.80;94.20;;;;;;5033267;28;20203;-80
2022/07/20 03:38:20;;;;;;;7.30;4.70;;;23.90;95.10;;;;;;5033063;28;20235;-81
2022/07/20 03:40:46;;;;;;;7.70;4.93;;;24.00;93.50;;;;;;5033256;28;20196;-80
2022/07/20 03:43:12;;;;;;;6.20;4.70;;;24.20;94.40;;;;;;5033720;28;20180;-80
2022/07/20 03:45:38;;;;;;;6.47;4.70;;;24.30;94.90;;;;;;5033195;28;20210;-80
2022/07/20 03:48:04;;;;;;;7.50;5.10;;;24.30;97.50;;;;;;5033407;28;20411;-80
2022/07/20 03:50:30;;;;;;;6.93;4.93;;;24.30;99.40;;;;;;5033628;28;20181;-80
2022/07/20 03:52:56;;;;;;;7.40;5.10;;;24.30;96.10;;;;;;5033333;28;20860;-81
2022/07/20 03:55:22;;;;;;;8.63;5.17;;;24.30;98.50;;;;;;5033182;28;20192;-81
2022/07/20 03:57:47;;;;;;;7.40;4.50;;;24.30;99.50;;;;;;5033311;28;20408;-80
2022/07/20 04:00:13;;;;;;;9.13;5.13;;;24.20;99.90;;;;;;5032959;28;20238;-81
2022/07/20 04:02:39;;;;;;;8.70;4.87;;;24.20;99.90;;;;;;5032892;28;20222;-81
2022/07/20 04:05:05;;;;;;;6.20;4.90;;;24.20;99.90;;;;;;5032472;28;20439;-80
2022/07/20 04:07:31;;;;;;;5.97;4.83;;;24.10;99.90;;;;;;5032664;28;20183;-80
2022/07/20 04:09:56;;;;;;;7.37;5.20;;;24.10;99.90;;;;;;5032601;28;20418;-81
2022/07/20 04:12:24;;;;;;;9.23;5.00;;;24.00;99.90;;;;;;5014877;28;20176;-80
2022/07/20 04:14:51;;;;;;;9.10;5.30;;;24.00;99.90;;;;;;5014659;28;20188;-81
2022/07/20 04:17:17;;;;;;;7.90;5.67;;;23.90;99.90;;;;;;5032299;28;20506;-80
2022/07/20 04:19:44;;;;;;;6.47;4.77;;;23.80;99.90;;;;;;5032910;28;20467;-80
2022/07/20 04:22:10;;;;;;;6.47;4.80;;;23.80;99.90;;;;;;5015302;28;20537;-81
2022/07/20 04:24:36;;;;;;;7.73;5.00;;;23.80;99.90;;;;;;5032875;28;20850;-80
2022/07/20 04:27:02;;;;;;;7.30;5.20;;;23.80;99.90;;;;;;5032181;28;20188;-80
2022/07/20 04:29:28;;;;;;;9.57;5.50;;;23.80;99.90;;;;;;5014917;28;20802;-84
2022/07/20 04:31:54;;;;;;;9.30;6.03;;;23.80;99.90;;;;;;5014310;28;20415;-85
2022/07/20 04:34:20;;;;;;;5.60;4.83;;;23.80;99.90;;;;;;5032074;28;20267;-84
2022/07/20 04:36:46;;;;;;;6.20;5.10;;;23.80;99.90;;;;;;5031792;28;20227;-84
2022/07/20 04:39:11;;;;;;;6.60;5.90;;;23.90;99.90;;;;;;5014237;28;20210;-84
2022/07/20 04:41:37;;;;;;;9.23;6.37;;;23.90;99.90;;;;;;5014296;28;20176;-85
2022/07/20 04:44:03;;;;;;;8.10;6.27;;;24.00;99.90;;;;;;5031788;28;20230;-85
2022/07/20 04:46:28;;;;;;;9.40;5.57;;;24.00;99.90;;;;;;5014002;28;20239;-85
2022/07/20 04:48:54;;;;;;;9.43;6.13;;;24.10;99.90;;;;;;5031893;28;20176;-85
2022/07/20 04:51:20;;;;;;;9.00;6.20;;;24.10;99.90;;;;;;5014336;28;20180;-84
2022/07/20 04:53:46;;;;;;;140.20;33.23;;;24.20;98.70;;;;;;5014296;28;20473;-84
2022/07/20 04:56:12;;;;;;;7.93;6.90;;;24.30;97.90;;;;;;5014120;28;20200;-84
2022/07/20 04:58:38;;;;;;;10.40;7.43;;;24.30;99.70;;;;;;5013929;28;20461;-84
2022/07/20 05:01:03;;;;;;;16.60;10.50;;;24.30;99.90;;;;;;5014261;28;20184;-84
2022/07/20 05:03:29;;;;;;;14.60;10.63;;;24.40;99.90;;;;;;5031822;28;20173;-84
2022/07/20 05:05:54;;;;;;;13.03;10.87;;;24.50;99.90;;;;;;5030136;28;20207;-84
2022/07/20 05:08:20;;;;;;;15.10;12.40;;;24.60;99.90;;;;;;5031836;28;20195;-84
2022/07/20 05:10:45;;;;;;;16.43;11.90;;;24.60;99.90;;;;;;5013971;28;20180;-84
2022/07/20 05:13:11;;;;;;;15.93;12.47;;;24.60;99.90;;;;;;5013966;28;20184;-85
2022/07/20 05:15:37;;;;;;;13.53;12.00;;;24.70;99.90;;;;;;5031538;28;20204;-83
2022/07/20 05:18:02;;;;;;;15.10;13.50;;;24.70;99.90;;;;;;5031508;28;20180;-84
2022/07/20 05:20:28;;;;;;;13.40;12.10;;;24.80;99.90;;;;;;5017582;28;20227;-84
2022/07/20 05:22:54;;;;;;;14.17;11.60;;;24.90;99.90;;;;;;5017853;28;20189;-81
2022/07/20 05:25:19;;;;;;;19.13;13.30;;;24.90;99.90;;;;;;5017135;28;20204;-81
2022/07/20 05:27:45;;;;;;;17.60;13.60;;;25.00;99.90;;;;;;5034829;28;20188;-81
2022/07/20 05:30:11;;;;;;;17.17;13.90;;;25.10;99.90;;;;;;5017545;28;20552;-81
2022/07/20 05:32:37;;;;;;;14.43;12.40;;;25.20;99.90;;;;;;5035426;28;20644;-81
2022/07/20 05:35:04;;;;;;;16.83;13.67;;;25.30;99.90;;;;;;5035277;28;20867;-81
2022/07/20 05:37:30;;;;;;;17.33;15.53;;;25.40;99.90;;;;;;5035120;28;20477;-81
2022/07/20 05:39:55;;;;;;;16.10;14.47;;;25.40;99.90;;;;;;5035678;28;20511;-81
2022/07/20 05:42:21;;;;;;;17.63;14.47;;;25.50;99.90;;;;;;5035345;28;20657;-81
2022/07/20 05:44:46;;;;;;;21.20;16.40;;;25.50;99.90;;;;;;5017318;28;20234;-81
2022/07/20 05:47:12;;;;;;;22.23;16.10;;;25.60;99.90;;;;;;5034602;28;20239;-81
2022/07/20 05:49:38;;;;;;;17.30;15.47;;;25.70;99.90;;;;;;5035019;28;20192;-81
2022/07/20 05:52:04;;;;;;;19.73;15.90;;;25.70;99.90;;;;;;5039589;28;20180;-81
2022/07/20 05:54:30;;;;;;;24.27;17.43;;;25.80;99.90;;;;;;5039891;28;20180;-81
2022/07/20 05:56:56;;;;;;;21.40;18.13;;;25.80;99.90;;;;;;5040699;28;20514;-82
2022/07/20 05:59:21;;;;;;;19.93;15.70;;;25.90;99.90;;;;;;5039646;28;20502;-81
2022/07/20 06:01:47;;;;;;;20.73;18.47;;;25.90;99.90;;;;;;5022144;28;20283;-81
2022/07/20 06:04:14;;;;;;;19.50;16.37;;;26.00;99.90;;;;;;5088932;23;20257;-79
2022/07/20 06:06:40;;;;;;;19.40;17.40;;;26.00;99.90;;;;;;5043354;28;20186;-81
2022/07/20 06:09:06;;;;;;;21.20;18.90;;;26.10;99.90;;;;;;5030807;28;20421;-84
2022/07/20 06:11:33;;;;;;;22.17;19.00;;;26.10;99.90;;;;;;5053662;28;20430;-82
2022/07/20 06:13:59;;;;;;;20.70;18.60;;;26.10;99.90;;;;;;5052750;28;20955;-83
2022/07/20 06:16:25;;;;;;;23.93;18.07;;;26.20;99.90;;;;;;5059167;28;20414;-82
2022/07/20 06:18:50;;;;;;;24.77;18.07;;;26.30;99.90;;;;;;5041695;28;20458;-82
2022/07/20 06:21:16;;;;;;;20.00;17.87;;;26.30;99.90;;;;;;5042210;28;20183;-82
2022/07/20 06:23:42;;;;;;;20.60;18.57;;;26.30;99.90;;;;;;5044780;28;20227;-83
2022/07/20 06:26:07;;;;;;;25.97;20.40;;;26.40;99.90;;;;;;5048851;28;20207;-82
2022/07/20 06:28:34;;;;;;;22.30;18.80;;;26.50;99.90;;;;;;5058162;28;20612;-82
2022/07/20 06:30:59;;;;;;;20.63;18.53;;;26.70;99.90;;;;;;5056940;28;20176;-83
2022/07/20 06:33:25;;;;;;;21.47;19.00;;;26.70;99.90;;;;;;5057442;28;20438;-82
2022/07/20 06:35:51;;;;;;;24.17;19.43;;;26.70;99.90;;;;;;5058886;28;20462;-82
2022/07/20 06:38:17;;;;;;;22.20;19.13;;;26.70;99.90;;;;;;5057497;28;20499;-82
2022/07/20 06:40:42;;;;;;;24.67;21.17;;;26.70;99.90;;;;;;5057448;28;20180;-82
2022/07/20 06:43:08;;;;;;;22.67;19.67;;;26.60;99.90;;;;;;5057362;28;20204;-82
2022/07/20 06:45:33;;;;;;;26.87;20.13;;;26.50;99.90;;;;;;5047638;28;20197;-83
2022/07/20 06:47:59;;;;;;;22.20;18.77;;;26.50;99.90;;;;;;5057442;28;20179;-83
2022/07/20 06:50:25;;;;;;;25.10;19.83;;;26.40;99.90;;;;;;5052703;28;20210;-84
2022/07/20 06:53:17;;;;;;;28.77;21.40;;;26.40;99.90;;;;;;5046524;28;20283;-83
2022/07/20 06:55:43;;;;;;;21.43;19.20;;;26.50;99.90;;;;;;5039669;28;20198;-84
2022/07/20 06:58:08;;;;;;;23.33;19.23;;;26.50;99.90;;;;;;5057596;28;20416;-84
2022/07/20 07:00:34;;;;;;;22.73;19.37;;;26.50;99.90;;;;;;5040171;28;20482;-84
2022/07/20 07:03:03;;;;;;;24.23;18.93;;;26.60;99.90;;;;;;5040738;28;20317;-85
2022/07/20 07:05:29;;;;;;;22.50;18.90;;;26.80;99.90;;;;;;5040066;28;20180;-82
2022/07/20 07:07:54;;;;;;;22.00;18.17;;;26.90;99.90;;;;;;5058472;28;20418;-85
2022/07/20 07:10:20;;;;;;;21.67;18.10;;;27.20;99.90;;;;;;5058780;28;20266;-82
2022/07/20 07:12:46;;;;;;;22.67;20.27;;;27.30;99.90;;;;;;5059534;28;20423;-85
2022/07/20 07:15:11;;;;;;;20.97;18.77;;;27.60;99.90;;;;;;5056845;28;20238;-84
2022/07/20 07:17:37;;;;;;;21.07;17.87;;;27.70;99.90;;;;;;5045874;28;20310;-82
2022/07/20 07:20:04;;;;;;;20.63;18.33;;;27.70;99.90;;;;;;5054097;28;20207;-83
2022/07/20 07:22:30;;;;;;;22.17;19.37;;;27.80;99.90;;;;;;5055269;28;20191;-84
2022/07/20 07:24:56;;;;;;;26.80;18.43;;;28.00;99.90;;;;;;5053659;28;20414;-81
2022/07/20 07:27:22;;;;;;;19.87;17.43;;;28.20;99.90;;;;;;5054536;28;20423;-83
2022/07/20 07:29:48;;;;;;;21.40;19.17;;;28.20;99.90;;;;;;5054550;28;20179;-83
2022/07/20 07:32:14;;;;;;;21.07;18.80;;;28.30;99.90;;;;;;5053706;28;20444;-82
2022/07/20 07:34:39;;;;;;;20.03;17.97;;;28.30;99.90;;;;;;5051537;28;20417;-82
2022/07/20 07:37:05;;;;;;;20.30;17.23;;;28.30;99.90;;;;;;5052452;28;20180;-84
2022/07/20 07:39:31;;;;;;;19.73;17.73;;;28.30;99.90;;;;;;5052990;28;20199;-82
2022/07/20 07:41:56;;;;;;;19.07;17.10;;;28.30;99.90;;;;;;5052516;28;20462;-82
2022/07/20 07:44:22;;;;;;;20.37;17.00;;;28.30;99.90;;;;;;5051546;28;20321;-83
2022/07/20 07:46:48;;;;;;;19.53;16.60;;;28.20;99.90;;;;;;5051177;28;20270;-82
2022/07/20 07:49:13;;;;;;;21.73;19.07;;;28.10;99.90;;;;;;5053197;28;20191;-83
2022/07/20 07:51:39;;;;;;;21.97;18.50;;;28.00;99.90;;;;;;5052731;28;20254;-82
2022/07/20 07:54:05;;;;;;;21.73;18.80;;;28.20;99.90;;;;;;5052613;28;20203;-82
2022/07/20 07:56:31;;;;;;;34.60;18.07;;;28.20;99.90;;;;;;5052620;28;20180;-82
2022/07/20 07:58:57;;;;;;;20.27;18.07;;;28.30;99.90;;;;;;5051246;28;20465;-83
2022/07/20 08:01:23;;;;;;;23.30;18.20;;;28.20;99.90;;;;;;5053118;28;20179;-83
2022/07/20 08:03:49;;;;;;;23.30;18.07;;;28.00;99.90;;;;;;5053774;28;20207;-83
2022/07/20 08:06:14;;;;;;;20.50;18.30;;;27.90;99.90;;;;;;5051785;28;20506;-82
2022/07/20 08:08:40;;;;;;;20.23;16.80;;;27.80;99.90;;;;;;5050906;28;20791;-82
2022/07/20 08:11:06;;;;;;;20.37;17.33;;;27.80;99.90;;;;;;5052388;28;20556;-82
2022/07/20 08:13:31;;;;;;;20.07;17.93;;;28.00;99.90;;;;;;5052739;28;20479;-83
2022/07/20 08:15:57;;;;;;;22.83;19.07;;;28.20;99.90;;;;;;5051346;28;20266;-83
2022/07/20 08:18:23;;;;;;;19.43;17.40;;;28.50;99.90;;;;;;5052427;28;20280;-82
2022/07/20 08:20:49;;;;;;;23.13;18.20;;;29.10;99.90;;;;;;5051355;28;20414;-83
2022/07/20 08:23:15;;;;;;;20.80;18.27;;;29.40;99.90;;;;;;5051111;28;20268;-83
2022/07/20 08:25:41;;;;;;;20.40;18.30;;;29.30;99.90;;;;;;5050929;28;20230;-82
2022/07/20 08:28:15;;;;;;;20.30;18.30;;;29.80;99.90;;;;;;5051301;28;20187;-83
2022/07/20 08:30:43;;;;;;;21.07;16.93;;;30.50;99.40;;;;;;5051091;28;20493;-83
2022/07/20 08:33:09;;;;;;;21.20;17.93;;;31.40;97.10;;;;;;5052068;28;20438;-82
2022/07/20 08:35:35;;;;;;;25.47;17.43;;;31.70;95.80;;;;;;5052162;28;20456;-83
2022/07/20 08:38:00;;;;;;;19.90;17.40;;;31.30;94.60;;;;;;5052255;28;20198;-83
2022/07/20 08:40:27;;;;;;;20.70;17.37;;;30.70;94.80;;;;;;5050786;28;20287;-82
2022/07/20 08:42:53;;;;;;;18.27;16.20;;;30.30;95.50;;;;;;5050581;28;20195;-82
2022/07/20 08:45:19;;;;;;;22.70;17.93;;;29.90;96.40;;;;;;5050686;28;20433;-81
2022/07/20 08:47:45;;;;;;;20.30;17.20;;;29.50;97.80;;;;;;5051757;28;20172;-82
2022/07/20 08:50:11;;;;;;;21.10;18.33;;;29.20;99.00;;;;;;5050741;28;20218;-84
2022/07/20 08:52:37;;;;;;;19.40;17.30;;;28.90;99.90;;;;;;5050592;28;20434;-82
2022/07/20 08:55:04;;;;;;;20.60;16.80;;;28.40;99.90;;;;;;5053625;28;20187;-83
2022/07/20 08:57:31;;;;;;;19.17;16.60;;;28.10;99.90;;;;;;5054203;28;20244;-83
2022/07/20 08:59:57;;;;;;;20.00;17.00;;;27.90;99.90;;;;;;5054222;28;20523;-83
2022/07/20 09:02:23;;;;;;;21.67;17.70;;;27.80;99.90;;;;;;5054324;28;20489;-82
2022/07/20 09:05:01;;;;;;;20.40;18.10;;;27.70;99.90;;;;;;5054387;28;20922;-83
2022/07/20 09:07:47;;;;;;;21.87;18.53;;;27.80;99.90;;;;;;5053989;28;20180;-83
2022/07/20 09:10:22;;;;;;;21.13;18.83;;;28.00;99.90;;;;;;5055698;28;20410;-83
2022/07/20 09:13:03;;;;;;;25.17;19.70;;;28.60;99.90;;;;;;5055541;28;20491;-83
2022/07/20 09:15:41;;;;;;;21.87;17.87;;;30.10;99.90;;;;;;5053980;28;20436;-83
2022/07/20 09:18:17;;;;;;;21.63;17.73;;;31.60;99.30;;;;;;5047889;28;21018;-83
2022/07/20 09:20:50;;;;;;;18.37;16.67;;;32.30;98.40;;;;;;5045564;28;20468;-83
2022/07/20 09:23:30;;;;;;;19.63;17.73;;;32.50;96.90;;;;;;5052156;28;20429;-83
2022/07/20 09:26:00;;;;;;;19.43;17.30;;;32.90;93.70;;;;;;5054264;28;20798;-83
2022/07/20 09:28:41;;;;;;;19.57;17.43;;;33.30;95.10;;;;;;5055790;28;20439;-83
2022/07/20 09:31:22;;;;;;;19.03;15.53;;;33.60;87.00;;;;;;5055513;28;20424;-84
2022/07/20 09:34:02;;;;;;;17.87;15.60;;;34.20;84.70;;;;;;5054140;28;20429;-83
2022/07/20 09:36:30;;;;;;;16.90;15.30;;;35.30;80.60;;;;;;5055215;28;20409;-83
2022/07/20 09:39:09;;;;;;;18.20;16.27;;;36.40;75.60;;;;;;5055484;28;20952;-83
2022/07/20 09:41:36;;;;;;;17.77;15.70;;;37.50;69.20;;;;;;5055479;28;20930;-83
2022/07/20 09:44:05;;;;;;;17.93;15.23;;;38.40;61.60;;;;;;5056447;28;20437;-84
2022/07/20 09:46:36;;;;;;;17.23;15.40;;;38.40;59.00;;;;;;5055701;28;20414;-85
2022/07/20 09:49:09;;;;;;;18.63;16.67;;;39.10;56.60;;;;;;5057791;28;20410;-84
2022/07/20 09:51:36;;;;;;;21.30;16.87;;;39.40;54.60;;;;;;5057631;28;20406;-84
2022/07/20 09:54:06;;;;;;;16.93;15.23;;;39.30;54.20;;;;;;5056658;28;20944;-85
2022/07/20 09:56:34;;;;;;;19.10;15.80;;;39.50;54.70;;;;;;5057434;28;20418;-83
2022/07/20 09:59:04;;;;;;;17.53;15.73;;;38.50;53.80;;;;;;5055944;28;20547;-85
2022/07/20 10:01:35;;;;;;;19.80;16.30;;;38.40;54.00;;;;;;5056020;28;20794;-84
2022/07/20 10:04:06;;;;;;;20.70;16.67;;;37.60;55.20;;;;;;5055785;28;20458;-84
2022/07/20 10:06:33;;;;;;;17.17;15.47;;;37.90;55.70;;;;;;5055866;28;20513;-83
2022/07/20 10:08:59;;;;;;;19.40;16.77;;;37.80;55.30;;;;;;5057270;28;20448;-84
2022/07/20 10:11:26;;;;;;;17.90;16.17;;;36.50;54.60;;;;;;5055768;28;20513;-84
2022/07/20 10:13:54;;;;;;;18.93;16.30;;;35.40;56.40;;;;;;5055805;28;20203;-84
2022/07/20 10:16:28;;;;;;;17.83;15.97;;;35.10;57.40;;;;;;5057895;28;20509;-85
2022/07/20 10:18:54;;;;;;;18.37;15.40;;;35.40;59.40;;;;;;5060871;28;20450;-84
2022/07/20 10:21:37;;;;;;;19.00;14.80;;;36.90;58.60;;;;;;5058582;28;20941;-84
2022/07/20 10:24:30;;;;;;;21.03;15.77;;;36.90;56.90;;;;;;5056679;28;20461;-83
2022/07/20 10:27:16;;;;;;;21.80;15.97;;;36.40;56.40;;;;;;5056965;28;20410;-83
2022/07/20 10:29:50;;;;;;;18.30;16.00;;;36.50;56.80;;;;;;5055986;28;20418;-84
2022/07/20 10:32:21;;;;;;;18.87;16.07;;;36.70;57.30;;;;;;5058805;28;20433;-84
2022/07/20 10:34:52;;;;;;;15.70;14.20;;;37.00;56.20;;;;;;5059969;28;20445;-85
2022/07/20 10:37:50;;;;;;;16.87;15.30;;;37.10;55.20;;;;;;5056726;28;20492;-83
2022/07/20 10:41:31;;;;;;;16.30;13.90;;;37.60;54.70;;;;;;5013216;28;20873;-85
2022/07/20 10:43:19;;;;;;;18.67;16.90;;;38.30;54.50;;;;;;5056469;28;20508;-84
2022/07/20 10:45:46;;;;;;;17.80;15.77;;;39.00;53.20;;;;;;5056787;28;20426;-84
2022/07/20 10:48:11;;;;;;;16.33;14.83;;;39.20;52.40;;;;;;5056658;28;20183;-84
2022/07/20 10:50:38;;;;;;;16.03;13.30;;;39.70;51.50;;;;;;5058520;28;20433;-85
2022/07/20 10:53:10;;;;;;;16.37;14.67;;;40.20;51.00;;;;;;5058645;28;20195;-85
2022/07/20 10:55:35;;;;;;;13.57;12.20;;;39.40;49.60;;;;;;5058780;28;20482;-86
2022/07/20 10:58:04;;;;;;;13.63;12.33;;;38.10;50.60;;;;;;5059719;28;20527;-85
2022/07/20 11:00:54;;;;;;;12.97;11.67;;;37.10;51.20;;;;;;5059368;28;20576;-84
2022/07/20 11:03:27;;;;;;;13.43;11.13;;;36.30;51.40;;;;;;5058172;28;20485;-86
2022/07/20 11:06:04;;;;;;;13.43;11.00;;;35.70;52.20;;;;;;5057844;28;20418;-87
2022/07/20 11:08:30;;;;;;;13.43;10.10;;;35.00;52.90;;;;;;5059404;28;20801;-86
2022/07/20 11:10:56;;;;;;;11.77;10.57;;;34.60;54.50;;;;;;5058263;28;20432;-86
2022/07/20 11:13:22;;;;;;;14.93;10.70;;;34.60;53.90;;;;;;5059333;28;20203;-84
2022/07/20 11:15:51;;;;;;;13.93;10.40;;;34.40;52.80;;;;;;5059079;28;20656;-84
2022/07/20 11:18:23;;;;;;;12.53;11.23;;;34.30;54.90;;;;;;5058342;28;20502;-84
2022/07/20 11:20:55;;;;;;;17.43;11.30;;;34.30;54.60;;;;;;5057591;28;20497;-84
2022/07/20 11:23:24;;;;;;;18.77;11.93;;;34.30;54.20;;;;;;5056845;28;20810;-85
2022/07/20 11:25:56;;;;;;;12.80;11.33;;;34.60;56.70;;;;;;5057961;28;20428;-84
2022/07/20 11:28:26;;;;;;;13.57;11.20;;;34.60;53.40;;;;;;5057308;28;20438;-84
2022/07/20 11:30:53;;;;;;;11.23;10.17;;;34.30;54.30;;;;;;5058044;28;20406;-85
2022/07/20 11:33:39;;;;;;;12.70;11.13;;;34.20;55.10;;;;;;5055778;28;21022;-83
2022/07/20 11:36:08;;;;;;;12.40;10.70;;;34.10;55.50;;;;;;5057886;28;20410;-84
2022/07/20 11:38:40;;;;;;;14.80;11.33;;;34.10;55.00;;;;;;5055874;28;20465;-86
2022/07/20 11:41:09;;;;;;;10.93;9.60;;;33.70;55.20;;;;;;5057683;28;20430;-83
2022/07/20 11:43:36;;;;;;;10.60;9.10;;;33.60;55.00;;;;;;5056958;28;20879;-84
2022/07/20 11:46:40;;;;;;;10.20;9.20;;;33.40;55.20;;;;;;5055039;28;20410;-85
2022/07/20 11:49:08;;;;;;;11.83;8.83;;;33.40;57.80;;;;;;5044319;28;20464;-85
2022/07/20 11:51:38;;;;;;;11.83;9.00;;;33.50;55.50;;;;;;5054923;28;20425;-85
2022/07/20 11:54:06;;;;;;;9.47;8.47;;;33.60;55.90;;;;;;5056948;28;20442;-85
2022/07/20 11:56:33;;;;;;;13.30;8.37;;;33.60;54.50;;;;;;5056176;28;20429;-85
2022/07/20 11:59:00;;;;;;;9.90;8.50;;;33.50;54.70;;;;;;5054567;28;20908;-83
2022/07/20 12:01:29;;;;;;;11.37;8.63;;;33.40;55.20;;;;;;5056029;28;20453;-86
2022/07/20 12:04:09;;;;;;;10.83;9.30;;;33.40;54.60;;;;;;5077260;22;20495;-78
2022/07/20 12:06:39;;;;;;;11.40;7.50;;;33.50;56.60;;;;;;5045460;28;20517;-78
2022/07/20 12:09:08;;;;;;;9.77;7.60;;;33.50;54.80;;;;;;5041415;28;20886;-78
2022/07/20 12:11:35;;;;;;;9.57;8.10;;;33.20;56.00;;;;;;5060099;28;20422;-78
2022/07/20 12:14:02;;;;;;;9.33;8.37;;;33.00;55.20;;;;;;5038761;28;20422;-77
2022/07/20 12:16:40;;;;;;;10.10;8.50;;;33.00;55.20;;;;;;5041383;28;20422;-78
2022/07/20 12:19:06;;;;;;;8.87;7.97;;;33.10;56.60;;;;;;5043750;28;20507;-77
2022/07/20 12:21:44;;;;;;;8.93;7.90;;;33.20;55.80;;;;;;5041083;28;20944;-77
2022/07/20 12:24:11;;;;;;;10.60;8.60;;;33.10;57.60;;;;;;5042817;28;20505;-78
2022/07/20 12:26:37;;;;;;;9.27;8.33;;;33.30;57.50;;;;;;5043174;28;20418;-78
2022/07/20 12:29:25;;;;;;;10.70;7.70;;;33.40;56.20;;;;;;5041306;28;20970;-78
2022/07/20 12:32:04;;;;;;;9.80;8.60;;;33.60;58.80;;;;;;5045973;28;20472;-78
2022/07/20 12:34:31;;;;;;;8.67;7.77;;;34.00;56.40;;;;;;5044430;28;20422;-78
2022/07/20 12:36:58;;;;;;;11.47;7.60;;;34.00;55.70;;;;;;5042634;28;20504;-78
2022/07/20 12:39:42;;;;;;;8.60;7.40;;;33.80;55.40;;;;;;5042227;28;20466;-78
2022/07/20 12:42:27;;;;;;;8.53;7.40;;;33.70;54.20;;;;;;5042271;28;20787;-78
2022/07/20 12:45:04;;;;;;;8.50;6.60;;;33.40;54.10;;;;;;5043381;28;20465;-78